sensor_id;sensor_type;location;lat;lon;timestamp;pressure;altitude;pressure_sealevel;temperature;humidity
61026;BME280;46911;32.650;-16.902;2023-02-28T00:00:08;102156.06;;;15.85;86.40
61026;BME280;46911;32.650;-16.902;2023-02-28T00:02:14;102163.59;;;15.93;86.29
61026;BME280;46911;32.650;-16.902;2023-02-28T00:04:18;102152.19;;;15.89;86.14
61026;BME280;46911;32.650;-16.902;2023-02-28T00:06:24;102146.03;;;15.87;85.84
61026;BME280;46911;32.650;-16.902;2023-02-28T00:08:25;102146.16;;;15.85;85.38
61026;BME280;46911;32.650;-16.902;2023-02-28T00:10:29;102147.88;;;15.86;85.46
61026;BME280;46911;32.650;-16.902;2023-02-28T00:12:34;102136.34;;;15.84;85.47
61026;BME280;46911;32.650;-16.902;2023-02-28T00:14:40;102160.06;;;15.92;85.43
61026;BME280;46911;32.650;-16.902;2023-02-28T00:16:41;102150.47;;;15.88;85.25
61026;BME280;46911;32.650;-16.902;2023-02-28T00:18:45;102161.00;;;15.91;85.25
61026;BME280;46911;32.650;-16.902;2023-02-28T00:20:47;102157.75;;;15.86;85.36
61026;BME280;46911;32.650;-16.902;2023-02-28T00:22:53;102144.03;;;15.76;85.36
61026;BME280;46911;32.650;-16.902;2023-02-28T00:24:56;102155.28;;;15.83;85.79
61026;BME280;46911;32.650;-16.902;2023-02-28T00:26:57;102163.16;;;15.86;85.92
61026;BME280;46911;32.650;-16.902;2023-02-28T00:29:03;102157.28;;;15.79;85.93
61026;BME280;46911;32.650;-16.902;2023-02-28T00:31:06;102162.50;;;15.82;85.88
61026;BME280;46911;32.650;-16.902;2023-02-28T00:33:11;102172.00;;;15.88;85.89
61026;BME280;46911;32.650;-16.902;2023-02-28T00:35:15;102156.66;;;15.76;85.60
61026;BME280;46911;32.650;-16.902;2023-02-28T00:37:16;102165.84;;;15.86;85.76
61026;BME280;46911;32.650;-16.902;2023-02-28T00:39:17;102154.91;;;15.74;85.79
61026;BME280;46911;32.650;-16.902;2023-02-28T00:41:18;102177.88;;;15.80;85.94
61026;BME280;46911;32.650;-16.902;2023-02-28T00:43:21;102156.19;;;15.69;85.98
61026;BME280;46911;32.650;-16.902;2023-02-28T00:45:22;102174.50;;;15.77;86.14
61026;BME280;46911;32.650;-16.902;2023-02-28T00:47:23;102148.41;;;15.64;86.14
61026;BME280;46911;32.650;-16.902;2023-02-28T00:49:25;102179.13;;;15.74;86.54
61026;BME280;46911;32.650;-16.902;2023-02-28T00:51:26;102183.84;;;15.71;86.65
61026;BME280;46911;32.650;-16.902;2023-02-28T00:53:32;102188.59;;;15.67;86.92
61026;BME280;46911;32.650;-16.902;2023-02-28T00:55:36;102174.13;;;15.55;87.25
61026;BME280;46911;32.650;-16.902;2023-02-28T00:57:40;102181.88;;;15.60;87.49
61026;BME280;46911;32.650;-16.902;2023-02-28T00:59:41;102191.56;;;15.63;87.51
61026;BME280;46911;32.650;-16.902;2023-02-28T01:01:46;102190.03;;;15.59;87.65
61026;BME280;46911;32.650;-16.902;2023-02-28T01:03:47;102159.53;;;15.45;87.64
61026;BME280;46911;32.650;-16.902;2023-02-28T01:05:48;102186.69;;;15.55;87.91
61026;BME280;46911;32.650;-16.902;2023-02-28T01:07:51;102168.78;;;15.41;87.91
61026;BME280;46911;32.650;-16.902;2023-02-28T01:09:51;102189.47;;;15.53;88.21
61026;BME280;46911;32.650;-16.902;2023-02-28T01:11:55;102180.00;;;15.48;87.94
61026;BME280;46911;32.650;-16.902;2023-02-28T01:13:58;102193.91;;;15.54;87.85
61026;BME280;46911;32.650;-16.902;2023-02-28T01:16:01;102190.25;;;15.55;87.53
61026;BME280;46911;32.650;-16.902;2023-02-28T01:18:05;102188.50;;;15.54;87.55
61026;BME280;46911;32.650;-16.902;2023-02-28T01:20:09;102184.97;;;15.54;87.50
61026;BME280;46911;32.650;-16.902;2023-02-28T01:22:10;102190.44;;;15.52;87.55
61026;BME280;46911;32.650;-16.902;2023-02-28T01:24:14;102164.34;;;15.40;87.22
61026;BME280;46911;32.650;-16.902;2023-02-28T01:26:22;102185.81;;;15.54;86.92
61026;BME280;46911;32.650;-16.902;2023-02-28T01:28:23;102165.97;;;15.43;86.95
61026;BME280;46911;32.650;-16.902;2023-02-28T01:30:24;102168.56;;;15.44;86.93
61026;BME280;46911;32.650;-16.902;2023-02-28T01:32:25;102177.75;;;15.54;86.98
61026;BME280;46911;32.650;-16.902;2023-02-28T01:34:26;102179.03;;;15.49;87.03
61026;BME280;46911;32.650;-16.902;2023-02-28T01:36:27;102173.09;;;15.44;86.76
61026;BME280;46911;32.650;-16.902;2023-02-28T01:38:30;102188.63;;;15.53;86.79
61026;BME280;46911;32.650;-16.902;2023-02-28T01:40:33;102172.31;;;15.42;86.57
61026;BME280;46911;32.650;-16.902;2023-02-28T01:42:36;102175.22;;;15.38;86.69
61026;BME280;46911;32.650;-16.902;2023-02-28T01:46:59;102166.38;;;15.36;86.70
61026;BME280;46911;32.650;-16.902;2023-02-28T01:49:11;102186.53;;;15.44;86.96
61026;BME280;46911;32.650;-16.902;2023-02-28T01:53:48;102201.88;;;15.42;86.62
61026;BME280;46911;32.650;-16.902;2023-02-28T01:55:51;102166.97;;;15.27;86.60
61026;BME280;46911;32.650;-16.902;2023-02-28T01:58:00;102168.59;;;15.30;86.35
61026;BME280;46911;32.650;-16.902;2023-02-28T02:00:13;102194.78;;;15.40;86.50
61026;BME280;46911;32.650;-16.902;2023-02-28T02:02:21;102183.94;;;15.42;86.06
61026;BME280;46911;32.650;-16.902;2023-02-28T02:04:27;102164.34;;;15.40;85.14
61026;BME280;46911;32.650;-16.902;2023-02-28T02:06:40;102157.81;;;15.44;84.74
61026;BME280;46911;32.650;-16.902;2023-02-28T02:08:44;102169.59;;;15.56;84.62
61026;BME280;46911;32.650;-16.902;2023-02-28T02:15:36;102178.47;;;15.71;83.64
61026;BME280;46911;32.650;-16.902;2023-02-28T02:17:46;102167.41;;;15.76;83.09
61026;BME280;46911;32.650;-16.902;2023-02-28T02:20:02;102168.03;;;15.79;82.73
61026;BME280;46911;32.650;-16.902;2023-02-28T02:22:12;102159.81;;;15.82;82.29
61026;BME280;46911;32.650;-16.902;2023-02-28T02:29:18;102159.94;;;15.81;82.60
61026;BME280;46911;32.650;-16.902;2023-02-28T02:39:14;102130.72;;;15.74;83.30
61026;BME280;46911;32.650;-16.902;2023-02-28T02:42:09;102136.81;;;15.77;83.17
61026;BME280;46911;32.650;-16.902;2023-02-28T02:46:29;102119.09;;;15.74;83.51
61026;BME280;46911;32.650;-16.902;2023-02-28T02:48:34;102115.28;;;15.64;83.87
61026;BME280;46911;32.650;-16.902;2023-02-28T02:50:41;102104.19;;;15.55;84.21
61026;BME280;46911;32.650;-16.902;2023-02-28T02:52:53;102102.69;;;15.51;84.54
61026;BME280;46911;32.650;-16.902;2023-02-28T02:55:02;102097.69;;;15.45;84.71
61026;BME280;46911;32.650;-16.902;2023-02-28T02:57:08;102104.69;;;15.48;85.01
61026;BME280;46911;32.650;-16.902;2023-02-28T02:59:13;102105.88;;;15.44;85.30
61026;BME280;46911;32.650;-16.902;2023-02-28T03:01:25;102093.50;;;15.41;85.84
61026;BME280;46911;32.650;-16.902;2023-02-28T03:03:33;102079.88;;;15.30;86.09
61026;BME280;46911;32.650;-16.902;2023-02-28T03:05:49;102089.38;;;15.35;86.64
61026;BME280;46911;32.650;-16.902;2023-02-28T03:07:56;102081.72;;;15.29;86.94
61026;BME280;46911;32.650;-16.902;2023-02-28T03:10:25;102087.31;;;15.26;87.01
61026;BME280;46911;32.650;-16.902;2023-02-28T03:12:34;102080.69;;;15.17;87.50
61026;BME280;46911;32.650;-16.902;2023-02-28T03:22:30;102119.59;;;15.12;88.20
61026;BME280;46911;32.650;-16.902;2023-02-28T03:26:39;102119.81;;;15.09;88.45
61026;BME280;46911;32.650;-16.902;2023-02-28T03:30:59;102116.91;;;15.12;88.51
61026;BME280;46911;32.650;-16.902;2023-02-28T03:33:33;102103.38;;;14.99;88.29
61026;BME280;46911;32.650;-16.902;2023-02-28T03:35:40;102103.59;;;14.96;88.11
61026;BME280;46911;32.650;-16.902;2023-02-28T03:37:45;102105.97;;;15.00;88.16
61026;BME280;46911;32.650;-16.902;2023-02-28T03:39:51;102117.50;;;15.02;88.34
61026;BME280;46911;32.650;-16.902;2023-02-28T03:42:12;102112.41;;;14.98;88.08
61026;BME280;46911;32.650;-16.902;2023-02-28T03:44:34;102114.03;;;15.00;88.34
61026;BME280;46911;32.650;-16.902;2023-02-28T03:46:38;102100.34;;;14.90;87.96
61026;BME280;46911;32.650;-16.902;2023-02-28T03:48:50;102099.50;;;14.90;88.15
61026;BME280;46911;32.650;-16.902;2023-02-28T03:50:54;102107.91;;;14.98;88.20
61026;BME280;46911;32.650;-16.902;2023-02-28T03:55:15;102085.00;;;14.93;88.40
61026;BME280;46911;32.650;-16.902;2023-02-28T03:59:52;102081.31;;;14.94;88.38
61026;BME280;46911;32.650;-16.902;2023-02-28T04:01:57;102099.38;;;15.06;88.57
61026;BME280;46911;32.650;-16.902;2023-02-28T04:03:58;102083.72;;;14.98;88.08
61026;BME280;46911;32.650;-16.902;2023-02-28T04:05:59;102073.66;;;15.02;87.93
61026;BME280;46911;32.650;-16.902;2023-02-28T04:08:07;102100.88;;;15.10;87.79
61026;BME280;46911;32.650;-16.902;2023-02-28T04:10:09;102099.91;;;15.11;87.46
61026;BME280;46911;32.650;-16.902;2023-02-28T04:12:15;102076.72;;;14.96;87.44
61026;BME280;46911;32.650;-16.902;2023-02-28T04:14:18;102097.72;;;15.03;87.26
61026;BME280;46911;32.650;-16.902;2023-02-28T04:16:19;102077.78;;;14.93;87.19
61026;BME280;46911;32.650;-16.902;2023-02-28T04:18:23;102101.28;;;15.04;87.30
61026;BME280;46911;32.650;-16.902;2023-02-28T04:20:24;102087.88;;;14.89;87.52
61026;BME280;46911;32.650;-16.902;2023-02-28T04:22:27;102081.84;;;14.86;87.49
61026;BME280;46911;32.650;-16.902;2023-02-28T04:24:33;102109.81;;;14.96;87.57
61026;BME280;46911;32.650;-16.902;2023-02-28T04:26:35;102112.72;;;14.93;87.44
61026;BME280;46911;32.650;-16.902;2023-02-28T04:28:39;102065.38;;;14.63;87.73
61026;BME280;46911;32.650;-16.902;2023-02-28T04:30:42;102099.31;;;14.79;87.69
61026;BME280;46911;32.650;-16.902;2023-02-28T04:32:43;102127.22;;;14.90;87.74
61026;BME280;46911;32.650;-16.902;2023-02-28T04:34:44;102126.53;;;14.87;87.78
61026;BME280;46911;32.650;-16.902;2023-02-28T04:36:50;102130.75;;;14.91;87.66
61026;BME280;46911;32.650;-16.902;2023-02-28T04:38:53;102122.63;;;14.93;87.37
61026;BME280;46911;32.650;-16.902;2023-02-28T04:40:59;102128.63;;;14.96;87.23
61026;BME280;46911;32.650;-16.902;2023-02-28T04:43:03;102122.03;;;14.87;87.12
61026;BME280;46911;32.650;-16.902;2023-02-28T04:45:09;102119.25;;;14.89;86.81
61026;BME280;46911;32.650;-16.902;2023-02-28T04:47:14;102120.97;;;14.90;86.92
61026;BME280;46911;32.650;-16.902;2023-02-28T04:49:22;102088.09;;;14.72;86.50
61026;BME280;46911;32.650;-16.902;2023-02-28T04:51:26;102134.88;;;14.97;86.74
61026;BME280;46911;32.650;-16.902;2023-02-28T04:53:28;102118.47;;;14.87;86.58
61026;BME280;46911;32.650;-16.902;2023-02-28T04:55:29;102139.59;;;14.93;86.72
61026;BME280;46911;32.650;-16.902;2023-02-28T04:57:30;102124.84;;;14.86;86.67
61026;BME280;46911;32.650;-16.902;2023-02-28T04:59:31;102137.84;;;14.92;86.65
61026;BME280;46911;32.650;-16.902;2023-02-28T05:01:34;102143.06;;;14.95;86.47
61026;BME280;46911;32.650;-16.902;2023-02-28T05:03:39;102132.69;;;14.89;86.36
61026;BME280;46911;32.650;-16.902;2023-02-28T05:05:46;102130.56;;;14.94;86.07
61026;BME280;46911;32.650;-16.902;2023-02-28T05:07:47;102148.91;;;15.02;86.17
61026;BME280;46911;32.650;-16.902;2023-02-28T05:09:47;102127.88;;;14.94;86.12
61026;BME280;46911;32.650;-16.902;2023-02-28T05:11:51;102129.63;;;14.95;85.90
61026;BME280;46911;32.650;-16.902;2023-02-28T05:13:55;102149.44;;;15.07;86.10
61026;BME280;46911;32.650;-16.902;2023-02-28T05:15:58;102123.81;;;15.01;85.91
61026;BME280;46911;32.650;-16.902;2023-02-28T05:18:04;102147.78;;;15.19;85.77
61026;BME280;46911;32.650;-16.902;2023-02-28T05:20:09;102137.59;;;15.24;85.55
61026;BME280;46911;32.650;-16.902;2023-02-28T05:22:15;102085.25;;;15.02;84.91
61026;BME280;46911;32.650;-16.902;2023-02-28T05:24:17;102119.34;;;15.29;84.34
61026;BME280;46911;32.650;-16.902;2023-02-28T05:26:23;102138.78;;;15.47;83.82
61026;BME280;46911;32.650;-16.902;2023-02-28T05:28:25;102121.34;;;15.40;83.32
61026;BME280;46911;32.650;-16.902;2023-02-28T05:30:28;102121.66;;;15.35;83.14
61026;BME280;46911;32.650;-16.902;2023-02-28T05:32:33;102130.25;;;15.40;83.23
61026;BME280;46911;32.650;-16.902;2023-02-28T05:34:34;102125.41;;;15.33;83.25
61026;BME280;46911;32.650;-16.902;2023-02-28T05:36:39;102129.91;;;15.32;83.52
61026;BME280;46911;32.650;-16.902;2023-02-28T05:38:39;102141.00;;;15.40;83.64
61026;BME280;46911;32.650;-16.902;2023-02-28T05:40:40;102125.28;;;15.34;83.92
61026;BME280;46911;32.650;-16.902;2023-02-28T05:42:41;102144.25;;;15.46;83.91
61026;BME280;46911;32.650;-16.902;2023-02-28T05:44:42;102138.69;;;15.49;83.98
61026;BME280;46911;32.650;-16.902;2023-02-28T05:46:49;102120.16;;;15.44;83.68
61026;BME280;46911;32.650;-16.902;2023-02-28T05:48:50;102128.69;;;15.51;83.65
61026;BME280;46911;32.650;-16.902;2023-02-28T05:50:51;102122.34;;;15.52;83.30
61026;BME280;46911;32.650;-16.902;2023-02-28T05:52:54;102139.94;;;15.70;83.03
61026;BME280;46911;32.650;-16.902;2023-02-28T05:54:55;102140.69;;;15.72;82.90
61026;BME280;46911;32.650;-16.902;2023-02-28T05:56:59;102137.94;;;15.74;82.99
61026;BME280;46911;32.650;-16.902;2023-02-28T05:59:02;102141.94;;;15.81;82.89
61026;BME280;46911;32.650;-16.902;2023-02-28T06:01:23;102120.06;;;15.73;82.59
61026;BME280;46911;32.650;-16.902;2023-02-28T06:03:27;102124.16;;;15.79;82.60
61026;BME280;46911;32.650;-16.902;2023-02-28T06:05:28;102143.16;;;15.90;82.35
61026;BME280;46911;32.650;-16.902;2023-02-28T06:07:29;102127.97;;;15.89;81.94
61026;BME280;46911;32.650;-16.902;2023-02-28T06:09:32;102128.94;;;15.88;81.68
61026;BME280;46911;32.650;-16.902;2023-02-28T06:11:35;102117.97;;;15.91;81.31
61026;BME280;46911;32.650;-16.902;2023-02-28T06:13:36;102145.97;;;16.01;81.62
61026;BME280;46911;32.650;-16.902;2023-02-28T06:15:39;102129.59;;;15.92;81.37
61026;BME280;46911;32.650;-16.902;2023-02-28T06:17:42;102121.63;;;15.90;81.02
61026;BME280;46911;32.650;-16.902;2023-02-28T06:19:48;102127.88;;;15.90;81.00
61026;BME280;46911;32.650;-16.902;2023-02-28T06:21:53;102130.22;;;15.95;81.00
61026;BME280;46911;32.650;-16.902;2023-02-28T06:23:55;102146.75;;;16.03;81.00
61026;BME280;46911;32.650;-16.902;2023-02-28T06:25:56;102150.94;;;16.08;81.01
61026;BME280;46911;32.650;-16.902;2023-02-28T06:27:58;102142.00;;;16.07;80.78
61026;BME280;46911;32.650;-16.902;2023-02-28T06:30:02;102155.34;;;16.09;80.67
61026;BME280;46911;32.650;-16.902;2023-02-28T06:32:05;102142.50;;;15.99;80.72
61026;BME280;46911;32.650;-16.902;2023-02-28T06:34:06;102123.22;;;15.93;80.60
61026;BME280;46911;32.650;-16.902;2023-02-28T06:36:07;102151.78;;;16.08;80.86
61026;BME280;46911;32.650;-16.902;2023-02-28T06:38:09;102141.88;;;16.09;80.77
61026;BME280;46911;32.650;-16.902;2023-02-28T06:40:11;102136.81;;;16.04;80.90
61026;BME280;46911;32.650;-16.902;2023-02-28T06:42:14;102138.13;;;16.11;81.02
61026;BME280;46911;32.650;-16.902;2023-02-28T06:44:20;102149.03;;;16.22;81.06
61026;BME280;46911;32.650;-16.902;2023-02-28T06:46:23;102141.06;;;16.21;80.62
61026;BME280;46911;32.650;-16.902;2023-02-28T06:48:30;102161.50;;;16.36;80.71
61026;BME280;46911;32.650;-16.902;2023-02-28T06:50:31;102145.59;;;16.33;80.54
61026;BME280;46911;32.650;-16.902;2023-02-28T06:52:33;102164.53;;;16.45;80.34
61026;BME280;46911;32.650;-16.902;2023-02-28T06:54:40;102143.63;;;16.35;80.20
61026;BME280;46911;32.650;-16.902;2023-02-28T06:56:46;102168.00;;;16.47;80.08
61026;BME280;46911;32.650;-16.902;2023-02-28T06:58:49;102159.38;;;16.42;79.88
61026;BME280;46911;32.650;-16.902;2023-02-28T07:00:53;102162.91;;;16.42;79.85
61026;BME280;46911;32.650;-16.902;2023-02-28T07:02:56;102169.91;;;16.45;79.44
61026;BME280;46911;32.650;-16.902;2023-02-28T07:04:57;102162.59;;;16.34;79.44
61026;BME280;46911;32.650;-16.902;2023-02-28T07:07:04;102165.09;;;16.37;79.22
61026;BME280;46911;32.650;-16.902;2023-02-28T07:09:05;102175.75;;;16.38;79.14
61026;BME280;46911;32.650;-16.902;2023-02-28T07:11:08;102174.00;;;16.37;78.44
61026;BME280;46911;32.650;-16.902;2023-02-28T07:13:09;102169.25;;;16.28;78.50
61026;BME280;46911;32.650;-16.902;2023-02-28T07:15:12;102171.00;;;16.29;78.43
61026;BME280;46911;32.650;-16.902;2023-02-28T07:17:15;102167.75;;;16.24;78.30
61026;BME280;46911;32.650;-16.902;2023-02-28T07:19:16;102175.63;;;16.27;78.24
61026;BME280;46911;32.650;-16.902;2023-02-28T07:21:20;102165.72;;;16.28;77.96
61026;BME280;46911;32.650;-16.902;2023-02-28T07:23:24;102184.69;;;16.39;78.24
61026;BME280;46911;32.650;-16.902;2023-02-28T07:25:26;102191.91;;;16.38;77.41
61026;BME280;46911;32.650;-16.902;2023-02-28T07:27:30;102196.09;;;16.43;77.12
61026;BME280;46911;32.650;-16.902;2023-02-28T07:29:31;102183.28;;;16.33;77.05
61026;BME280;46911;32.650;-16.902;2023-02-28T07:31:34;102204.94;;;16.45;76.91
61026;BME280;46911;32.650;-16.902;2023-02-28T07:33:36;102195.34;;;16.40;76.72
61026;BME280;46911;32.650;-16.902;2023-02-28T07:35:37;102209.13;;;16.49;76.62
61026;BME280;46911;32.650;-16.902;2023-02-28T07:37:43;102213.25;;;16.54;76.53
61026;BME280;46911;32.650;-16.902;2023-02-28T07:39:47;102189.53;;;16.47;76.54
61026;BME280;46911;32.650;-16.902;2023-02-28T07:41:50;102201.59;;;16.54;76.13
61026;BME280;46911;32.650;-16.902;2023-02-28T07:43:53;102208.72;;;16.55;75.84
61026;BME280;46911;32.650;-16.902;2023-02-28T07:45:56;102209.38;;;16.59;76.10
61026;BME280;46911;32.650;-16.902;2023-02-28T07:48:01;102206.56;;;16.60;75.95
61026;BME280;46911;32.650;-16.902;2023-02-28T07:50:05;102214.00;;;16.69;75.72
61026;BME280;46911;32.650;-16.902;2023-02-28T07:52:13;102200.84;;;16.65;75.12
61026;BME280;46911;32.650;-16.902;2023-02-28T07:54:18;102223.38;;;16.77;75.25
61026;BME280;46911;32.650;-16.902;2023-02-28T07:56:19;102219.50;;;16.81;75.08
61026;BME280;46911;32.650;-16.902;2023-02-28T07:58:23;102214.44;;;16.89;74.89
61026;BME280;46911;32.650;-16.902;2023-02-28T08:00:27;102187.91;;;16.83;74.54
61026;BME280;46911;32.650;-16.902;2023-02-28T08:02:29;102211.31;;;16.95;74.70
61026;BME280;46911;32.650;-16.902;2023-02-28T08:04:32;102208.19;;;17.01;74.70
61026;BME280;46911;32.650;-16.902;2023-02-28T08:06:33;102206.25;;;17.03;74.37
61026;BME280;46911;32.650;-16.902;2023-02-28T08:08:40;102207.84;;;17.06;74.53
61026;BME280;46911;32.650;-16.902;2023-02-28T08:10:43;102200.66;;;17.06;74.19
61026;BME280;46911;32.650;-16.902;2023-02-28T08:12:44;102216.91;;;17.18;74.16
61026;BME280;46911;32.650;-16.902;2023-02-28T08:14:45;102219.38;;;17.21;74.08
61026;BME280;46911;32.650;-16.902;2023-02-28T08:16:46;102219.69;;;17.29;74.03
61026;BME280;46911;32.650;-16.902;2023-02-28T08:18:51;102212.81;;;17.25;73.56
61026;BME280;46911;32.650;-16.902;2023-02-28T08:20:52;102226.66;;;17.45;73.30
61026;BME280;46911;32.650;-16.902;2023-02-28T08:22:55;102212.63;;;17.39;73.12
61026;BME280;46911;32.650;-16.902;2023-02-28T08:24:56;102211.66;;;17.40;72.88
61026;BME280;46911;32.650;-16.902;2023-02-28T08:26:59;102225.66;;;17.59;72.53
61026;BME280;46911;32.650;-16.902;2023-02-28T08:29:03;102196.44;;;17.39;72.65
61026;BME280;46911;32.650;-16.902;2023-02-28T08:31:09;102224.09;;;17.67;72.36
61026;BME280;46911;32.650;-16.902;2023-02-28T08:33:10;102226.09;;;17.77;72.22
61026;BME280;46911;32.650;-16.902;2023-02-28T08:35:13;102257.69;;;18.00;72.12
61026;BME280;46911;32.650;-16.902;2023-02-28T08:37:14;102246.91;;;18.12;71.74
61026;BME280;46911;32.650;-16.902;2023-02-28T08:39:15;102240.59;;;18.24;71.57
61026;BME280;46911;32.650;-16.902;2023-02-28T08:41:18;102228.19;;;18.21;71.11
61026;BME280;46911;32.650;-16.902;2023-02-28T08:43:23;102235.34;;;18.34;71.03
61026;BME280;46911;32.650;-16.902;2023-02-28T08:45:26;102233.53;;;18.46;70.61
61026;BME280;46911;32.650;-16.902;2023-02-28T08:47:31;102259.88;;;18.66;69.97
61026;BME280;46911;32.650;-16.902;2023-02-28T08:49:36;102241.69;;;18.68;69.38
61026;BME280;46911;32.650;-16.902;2023-02-28T08:51:39;102238.88;;;18.70;69.09
61026;BME280;46911;32.650;-16.902;2023-02-28T08:53:40;102268.13;;;18.87;69.15
61026;BME280;46911;32.650;-16.902;2023-02-28T08:55:41;102254.78;;;18.97;68.88
61026;BME280;46911;32.650;-16.902;2023-02-28T08:57:42;102250.00;;;19.01;68.51
61026;BME280;46911;32.650;-16.902;2023-02-28T08:59:45;102265.97;;;19.15;68.92
61026;BME280;46911;32.650;-16.902;2023-02-28T09:01:46;102275.69;;;19.29;68.55
61026;BME280;46911;32.650;-16.902;2023-02-28T09:03:51;102262.53;;;19.36;68.32
61026;BME280;46911;32.650;-16.902;2023-02-28T09:06:01;102273.19;;;19.60;68.00
61026;BME280;46911;32.650;-16.902;2023-02-28T09:08:02;102262.13;;;19.63;67.62
61026;BME280;46911;32.650;-16.902;2023-02-28T09:10:04;102284.50;;;19.88;67.44
61026;BME280;46911;32.650;-16.902;2023-02-28T09:12:05;102263.16;;;19.95;66.33
61026;BME280;46911;32.650;-16.902;2023-02-28T09:14:06;102281.41;;;20.25;66.15
61026;BME280;46911;32.650;-16.902;2023-02-28T09:16:10;102268.28;;;20.41;65.25
61026;BME280;46911;32.650;-16.902;2023-02-28T09:18:11;102270.47;;;20.48;64.77
61026;BME280;46911;32.650;-16.902;2023-02-28T09:20:13;102280.56;;;20.78;64.70
61026;BME280;46911;32.650;-16.902;2023-02-28T09:22:14;102267.69;;;21.01;64.32
61026;BME280;46911;32.650;-16.902;2023-02-28T09:24:14;102276.41;;;21.36;63.45
61026;BME280;46911;32.650;-16.902;2023-02-28T09:26:23;102287.38;;;21.65;62.86
61026;BME280;46911;32.650;-16.902;2023-02-28T09:28:27;102280.41;;;21.82;62.98
61026;BME280;46911;32.650;-16.902;2023-02-28T09:30:30;102293.31;;;21.90;63.09
61026;BME280;46911;32.650;-16.902;2023-02-28T09:32:31;102286.41;;;21.86;63.55
61026;BME280;46911;32.650;-16.902;2023-02-28T09:34:34;102292.91;;;22.14;63.51
61026;BME280;46911;32.650;-16.902;2023-02-28T09:36:37;102295.59;;;21.95;63.52
61026;BME280;46911;32.650;-16.902;2023-02-28T09:38:38;102283.03;;;22.03;63.23
61026;BME280;46911;32.650;-16.902;2023-02-28T09:40:51;102304.31;;;22.18;63.18
61026;BME280;46911;32.650;-16.902;2023-02-28T09:42:55;102305.91;;;22.11;63.05
61026;BME280;46911;32.650;-16.902;2023-02-28T09:45:02;102306.19;;;22.17;62.59
61026;BME280;46911;32.650;-16.902;2023-02-28T09:49:40;102299.06;;;23.13;60.06
61026;BME280;46911;32.650;-16.902;2023-02-28T09:51:58;102308.94;;;24.25;57.13
61026;BME280;46911;32.650;-16.902;2023-02-28T09:54:02;102300.91;;;24.78;55.82
61026;BME280;46911;32.650;-16.902;2023-02-28T09:56:11;102320.94;;;25.98;54.16
61026;BME280;46911;32.650;-16.902;2023-02-28T09:58:55;102313.38;;;24.80;53.26
61026;BME280;46911;32.650;-16.902;2023-02-28T10:05:32;102311.06;;;22.72;60.41
61026;BME280;46911;32.650;-16.902;2023-02-28T10:09:47;102324.00;;;23.28;58.20
61026;BME280;46911;32.650;-16.902;2023-02-28T10:11:56;102333.53;;;23.42;58.59
61026;BME280;46911;32.650;-16.902;2023-02-28T10:14:06;102325.78;;;23.37;59.05
61026;BME280;46911;32.650;-16.902;2023-02-28T10:16:23;102327.97;;;22.76;61.00
61026;BME280;46911;32.650;-16.902;2023-02-28T10:18:35;102341.00;;;21.73;64.67
61026;BME280;46911;32.650;-16.902;2023-02-28T10:20:39;102324.56;;;21.65;65.33
61026;BME280;46911;32.650;-16.902;2023-02-28T10:24:54;102326.84;;;23.26;60.10
61026;BME280;46911;32.650;-16.902;2023-02-28T10:27:16;102331.19;;;23.19;59.73
61026;BME280;46911;32.650;-16.902;2023-02-28T10:29:19;102321.81;;;23.31;59.98
61026;BME280;46911;32.650;-16.902;2023-02-28T10:31:22;102324.59;;;23.02;62.20
61026;BME280;46911;32.650;-16.902;2023-02-28T10:33:32;102322.34;;;22.87;63.60
61026;BME280;46911;32.650;-16.902;2023-02-28T10:35:35;102313.72;;;21.74;66.74
61026;BME280;46911;32.650;-16.902;2023-02-28T10:37:39;102320.19;;;21.83;67.01
61026;BME280;46911;32.650;-16.902;2023-02-28T10:39:45;102327.28;;;21.65;65.28
61026;BME280;46911;32.650;-16.902;2023-02-28T10:41:46;102331.97;;;21.11;67.71
61026;BME280;46911;32.650;-16.902;2023-02-28T10:43:50;102301.03;;;21.23;68.16
61026;BME280;46911;32.650;-16.902;2023-02-28T10:46:05;102326.25;;;21.04;69.14
61026;BME280;46911;32.650;-16.902;2023-02-28T10:48:29;102307.53;;;21.32;68.65
61026;BME280;46911;32.650;-16.902;2023-02-28T10:52:52;102298.13;;;21.46;68.78
61026;BME280;46911;32.650;-16.902;2023-02-28T10:55:20;102312.00;;;21.43;68.10
61026;BME280;46911;32.650;-16.902;2023-02-28T10:57:26;102298.75;;;20.87;69.35
61026;BME280;46911;32.650;-16.902;2023-02-28T10:59:27;102307.44;;;21.12;68.92
61026;BME280;46911;32.650;-16.902;2023-02-28T11:01:38;102304.13;;;21.70;67.26
61026;BME280;46911;32.650;-16.902;2023-02-28T11:03:39;102288.44;;;21.94;65.01
61026;BME280;46911;32.650;-16.902;2023-02-28T11:05:41;102306.53;;;22.44;64.04
61026;BME280;46911;32.650;-16.902;2023-02-28T11:07:51;102280.31;;;23.10;60.23
61026;BME280;46911;32.650;-16.902;2023-02-28T11:09:56;102275.38;;;23.61;59.25
61026;BME280;46911;32.650;-16.902;2023-02-28T11:11:58;102288.63;;;23.18;58.46
61026;BME280;46911;32.650;-16.902;2023-02-28T11:14:04;102293.78;;;23.77;57.73
61026;BME280;46911;32.650;-16.902;2023-02-28T11:16:09;102285.84;;;23.83;57.45
61026;BME280;46911;32.650;-16.902;2023-02-28T11:18:24;102270.88;;;24.33;55.28
61026;BME280;46911;32.650;-16.902;2023-02-28T11:20:32;102277.84;;;25.06;54.08
61026;BME280;46911;32.650;-16.902;2023-02-28T11:22:38;102290.69;;;25.40;52.50
61026;BME280;46911;32.650;-16.902;2023-02-28T11:24:44;102284.81;;;24.12;54.60
61026;BME280;46911;32.650;-16.902;2023-02-28T11:26:51;102286.50;;;23.95;56.03
61026;BME280;46911;32.650;-16.902;2023-02-28T11:29:09;102279.81;;;23.62;57.41
61026;BME280;46911;32.650;-16.902;2023-02-28T11:33:30;102259.56;;;22.61;59.50